createdAt,value
2019-05-02T00:02:32.157Z,58.40
2019-05-02T00:05:05.315Z,58.20
2019-05-02T00:07:37.762Z,57.90
2019-05-02T00:10:13.056Z,57.80
2019-05-02T00:12:46.811Z,57.60
2019-05-02T00:15:20.578Z,57.20
2019-05-02T00:17:56.839Z,56.90
2019-05-02T00:20:27.656Z,56.90
2019-05-02T00:22:59.867Z,57.00
2019-05-02T00:25:31.974Z,57.00
2019-05-02T00:28:07.770Z,56.40
2019-05-02T00:30:38.700Z,56.20
2019-05-02T00:33:10.780Z,56.60
2019-05-02T00:35:46.314Z,55.90
2019-05-02T00:38:16.687Z,55.30
2019-05-02T00:40:48.946Z,55.40
2019-05-02T00:43:21.095Z,55.00
2019-05-02T00:45:54.983Z,54.70
2019-05-02T00:48:29.907Z,55.50
2019-05-02T00:51:02.479Z,54.80
2019-05-02T00:53:34.511Z,54.60
2019-05-02T00:56:09.039Z,54.60
2019-05-02T00:58:40.526Z,54.50
2019-05-02T01:01:14.148Z,54.40
2019-05-02T01:03:52.090Z,54.40
2019-05-02T01:06:21.996Z,54.90
2019-05-02T01:08:54.442Z,54.30
2019-05-02T01:11:28.235Z,54.30
2019-05-02T01:14:00.788Z,54.30
2019-05-02T01:16:33.322Z,54.40
2019-05-02T01:19:05.933Z,53.90
2019-05-02T01:21:38.839Z,54.40
2019-05-02T01:24:11.844Z,53.70
2019-05-02T01:26:45.279Z,53.40
2019-05-02T01:29:19.391Z,53.60
2019-05-02T01:31:54.659Z,53.30
2019-05-02T01:34:26.548Z,53.10
2019-05-02T01:36:59.998Z,52.60
2019-05-02T01:39:32.616Z,52.40
2019-05-02T01:42:05.437Z,51.70
2019-05-02T01:44:45.999Z,51.80
2019-05-02T01:47:17.939Z,51.30
2019-05-02T01:49:57.250Z,51.10
2019-05-02T01:52:26.280Z,51.00
2019-05-02T01:54:58.164Z,50.80
2019-05-02T01:57:31.090Z,50.80
2019-05-02T02:00:04.289Z,50.30
2019-05-02T02:02:36.521Z,50.20
2019-05-02T02:05:10.288Z,50.40
2019-05-02T02:07:42.584Z,50.60
2019-05-02T02:10:19.775Z,49.90
2019-05-02T02:13:02.970Z,49.80
2019-05-02T02:15:25.104Z,50.30
2019-05-02T02:17:59.999Z,52.00
2019-05-02T02:20:33.444Z,48.80
2019-05-02T02:23:05.485Z,48.90
2019-05-02T02:25:39.806Z,48.50
2019-05-02T02:28:12.178Z,47.80
2019-05-02T02:30:44.721Z,47.80
2019-05-02T02:33:17.411Z,49.10
2019-05-02T02:35:51.895Z,47.70
2019-05-02T02:38:26.918Z,47.20
2019-05-02T02:40:57.822Z,48.10
2019-05-02T02:43:34.838Z,47.60
2019-05-02T02:46:07.255Z,47.00
2019-05-02T02:48:42.570Z,46.80
2019-05-02T02:51:22.121Z,46.60
2019-05-02T02:53:49.317Z,46.60
2019-05-02T02:56:21.466Z,46.40
2019-05-02T02:58:55.002Z,46.70
2019-05-02T03:01:29.323Z,46.30
2019-05-02T03:04:21.533Z,46.60
2019-05-02T03:06:55.313Z,46.50
2019-05-02T03:09:29.054Z,46.70
2019-05-02T03:12:04.542Z,46.50
2019-05-02T03:14:41.000Z,45.30
2019-05-02T03:17:20.527Z,45.90
2019-05-02T03:19:54.328Z,44.80
2019-05-02T03:22:24.172Z,44.70
2019-05-02T03:24:57.249Z,45.20
2019-05-02T03:27:36.961Z,45.10
2019-05-02T03:30:04.485Z,44.80
2019-05-02T03:32:37.040Z,44.60
2019-05-02T03:35:09.682Z,43.70
2019-05-02T03:37:51.449Z,43.90
2019-05-02T03:40:21.903Z,42.90
2019-05-02T03:42:54.590Z,43.70
2019-05-02T03:45:32.121Z,43.60
2019-05-02T03:48:01.088Z,43.20
2019-05-02T03:50:35.441Z,42.60
2019-05-02T03:53:08.099Z,43.20
2019-05-02T03:55:40.856Z,43.10
2019-05-02T03:58:16.265Z,43.00
2019-05-02T04:00:48.491Z,42.80
2019-05-02T04:03:21.731Z,42.80
2019-05-02T04:05:54.713Z,41.90
2019-05-02T04:08:27.612Z,42.30
2019-05-02T04:11:03.110Z,42.60
2019-05-02T04:13:38.171Z,41.80
2019-05-02T04:16:32.709Z,41.50
2019-05-02T04:19:05.626Z,41.70
2019-05-02T04:21:38.064Z,41.40
2019-05-02T04:24:15.138Z,41.30
2019-05-02T04:26:53.435Z,40.80
2019-05-02T04:29:24.539Z,40.80
2019-05-02T04:31:55.002Z,41.10
2019-05-02T04:34:27.754Z,40.10
2019-05-02T04:37:03.679Z,39.90
2019-05-02T04:39:34.666Z,40.30
2019-05-02T04:42:12.998Z,39.80
2019-05-02T04:45:07.495Z,39.10
2019-05-02T04:47:20.632Z,39.10
2019-05-02T04:49:51.846Z,37.10
2019-05-02T04:52:22.810Z,36.00
2019-05-02T04:55:08.771Z,36.20
2019-05-02T04:57:36.976Z,36.90
2019-05-02T05:00:08.618Z,36.70
2019-05-02T05:02:40.056Z,37.10
2019-05-02T05:05:17.203Z,37.20
2019-05-02T05:08:07.759Z,37.20
2019-05-02T05:10:43.796Z,37.40
2019-05-02T05:13:19.458Z,36.10
2019-05-02T05:15:51.302Z,36.10
2019-05-02T05:18:21.946Z,36.40
2019-05-02T05:20:54.366Z,36.80
2019-05-02T05:23:28.134Z,36.50
2019-05-02T05:26:03.725Z,36.40
2019-05-02T05:28:35.020Z,36.60
2019-05-02T05:31:07.925Z,37.50
2019-05-02T05:33:39.953Z,36.30
2019-05-02T05:36:11.998Z,36.10
2019-05-02T05:38:44.088Z,35.60
2019-05-02T05:41:22.645Z,35.60
2019-05-02T05:43:53.626Z,35.80
2019-05-02T05:46:24.815Z,35.50
2019-05-02T05:49:18.361Z,35.10
2019-05-02T05:51:54.284Z,35.10
2019-05-02T05:54:25.065Z,34.70
2019-05-02T05:57:21.079Z,33.70
2019-05-02T05:59:51.447Z,34.60
2019-05-02T06:02:23.991Z,34.30
2019-05-02T06:05:02.253Z,34.50
2019-05-02T06:07:33.627Z,34.40
2019-05-02T06:10:07.778Z,34.90
2019-05-02T06:12:38.254Z,34.20
2019-05-02T06:15:10.572Z,33.80
2019-05-02T06:17:43.021Z,33.50
2019-05-02T06:20:16.455Z,33.40
2019-05-02T06:22:48.977Z,32.80
2019-05-02T06:25:32.602Z,34.10
2019-05-02T06:28:00.155Z,32.70
2019-05-02T06:30:31.075Z,31.80
2019-05-02T06:33:04.656Z,32.10
2019-05-02T06:35:36.816Z,31.90
2019-05-02T06:38:08.673Z,32.10
2019-05-02T06:40:44.815Z,32.90
2019-05-02T06:43:16.242Z,32.00
2019-05-02T06:45:48.489Z,32.00
2019-05-02T06:48:20.981Z,32.60
2019-05-02T06:50:53.967Z,32.50
2019-05-02T06:53:27.101Z,32.90
2019-05-02T06:55:59.120Z,32.80
2019-05-02T06:58:31.796Z,32.60
2019-05-02T07:01:04.937Z,32.60
2019-05-02T07:03:41.338Z,33.40
2019-05-02T07:06:12.929Z,32.70
2019-05-02T07:08:45.956Z,32.90
2019-05-02T07:11:18.143Z,32.60
2019-05-02T07:14:13.333Z,32.50
2019-05-02T07:16:45.053Z,32.40
2019-05-02T07:19:21.626Z,32.00
2019-05-02T07:21:53.057Z,31.70
2019-05-02T07:24:30.672Z,31.30
2019-05-02T07:27:02.324Z,30.90
2019-05-02T07:29:34.828Z,30.40
2019-05-02T07:32:07.442Z,30.50
2019-05-02T07:34:44.227Z,30.30
2019-05-02T07:37:14.048Z,30.40
2019-05-02T07:39:46.665Z,30.30
2019-05-02T07:42:19.287Z,30.20
2019-05-02T07:44:51.309Z,30.90
2019-05-02T07:47:23.553Z,30.10
2019-05-02T07:49:56.162Z,30.10
2019-05-02T07:52:28.877Z,30.20
2019-05-02T07:55:20.271Z,30.70
2019-05-02T07:58:06.985Z,30.50
2019-05-02T08:00:37.102Z,31.00
2019-05-02T08:03:09.952Z,30.60
2019-05-02T08:05:42.981Z,31.10
2019-05-02T08:08:15.841Z,31.30
2019-05-02T08:10:48.059Z,32.40
2019-05-02T08:13:22.853Z,31.10
2019-05-02T08:15:55.495Z,30.30
2019-05-02T08:18:31.755Z,30.60
2019-05-02T08:21:04.683Z,31.10
2019-05-02T08:23:36.996Z,30.90
2019-05-02T08:26:16.448Z,30.60
2019-05-02T08:28:53.154Z,30.70
2019-05-02T08:31:26.209Z,30.10
2019-05-02T08:33:58.398Z,30.00
2019-05-02T08:36:30.412Z,30.00
2019-05-02T08:39:25.875Z,30.00
2019-05-02T08:41:57.894Z,30.00
2019-05-02T08:44:30.319Z,31.00
2019-05-02T08:47:02.594Z,30.60
2019-05-02T08:49:34.434Z,30.00
2019-05-02T08:52:07.709Z,30.50
2019-05-02T08:54:40.871Z,30.70
2019-05-02T08:57:12.922Z,31.10
2019-05-02T08:59:44.855Z,31.50
2019-05-02T09:02:21.111Z,32.20
2019-05-02T09:04:58.617Z,32.50
2019-05-02T09:07:31.716Z,32.50
2019-05-02T09:10:05.816Z,32.40
2019-05-02T09:12:43.685Z,31.90
2019-05-02T09:15:12.187Z,32.20
2019-05-02T09:17:51.661Z,32.10
2019-05-02T09:20:20.895Z,31.60
2019-05-02T09:22:56.125Z,31.70
2019-05-02T09:25:28.183Z,31.30
2019-05-02T09:28:01.886Z,31.90
2019-05-02T09:30:34.378Z,31.80
2019-05-02T09:33:07.013Z,32.70
2019-05-02T09:35:39.319Z,33.60
2019-05-02T09:38:12.955Z,33.20
2019-05-02T09:40:47.155Z,33.10
2019-05-02T09:43:19.437Z,32.70
2019-05-02T09:45:52.127Z,32.80
2019-05-02T09:48:26.806Z,33.10
2019-05-02T09:50:58.427Z,33.30
2019-05-02T09:53:32.380Z,33.70
2019-05-02T09:56:05.506Z,34.00
2019-05-02T09:58:37.377Z,33.60
2019-05-02T10:01:11.996Z,33.90
2019-05-02T10:03:44.193Z,33.50
2019-05-02T10:06:18.151Z,33.00
2019-05-02T10:08:51.999Z,33.60
2019-05-02T10:11:26.276Z,33.20
2019-05-02T10:13:58.989Z,33.70
2019-05-02T10:16:31.894Z,33.40
2019-05-02T10:19:10.467Z,33.50
2019-05-02T10:21:38.196Z,33.90
2019-05-02T10:24:12.692Z,33.70
2019-05-02T10:26:44.736Z,33.10
2019-05-02T10:29:20.990Z,33.70
2019-05-02T10:31:52.611Z,34.40
2019-05-02T10:34:24.620Z,34.30
2019-05-02T10:36:58.873Z,33.90
2019-05-02T10:39:33.965Z,34.60
2019-05-02T10:42:06.778Z,34.40
2019-05-02T10:44:38.905Z,33.80
2019-05-02T10:47:12.819Z,34.90
2019-05-02T10:52:34.293Z,34.90
2019-05-02T10:55:08.208Z,34.90
2019-05-02T10:57:42.096Z,35.10
2019-05-02T11:00:17.990Z,35.40
2019-05-02T11:02:52.468Z,34.80
2019-05-02T11:05:26.755Z,35.70
2019-05-02T11:08:18.361Z,35.80
2019-05-02T11:10:50.217Z,35.80
2019-05-02T11:13:24.081Z,35.60
2019-05-02T11:15:58.317Z,36.00
2019-05-02T11:18:40.176Z,36.00
2019-05-02T11:21:08.319Z,36.10
2019-05-02T11:23:41.889Z,36.00
2019-05-02T11:26:16.330Z,36.10
2019-05-02T11:28:46.869Z,36.60
2019-05-02T11:31:38.338Z,36.40
2019-05-02T11:34:12.314Z,36.90
2019-05-02T11:36:45.177Z,36.90
2019-05-02T11:39:25.701Z,36.90
2019-05-02T11:41:52.711Z,37.10
2019-05-02T11:44:44.856Z,37.70
2019-05-02T11:47:17.284Z,37.30
2019-05-02T11:49:52.055Z,37.70
2019-05-02T11:52:27.574Z,37.50
2019-05-02T11:54:57.904Z,37.60
2019-05-02T11:57:31.195Z,37.70
2019-05-02T12:00:05.178Z,37.90
2019-05-02T12:02:36.794Z,38.00
2019-05-02T12:05:12.803Z,38.00
2019-05-02T12:07:44.695Z,38.20
2019-05-02T12:10:17.681Z,38.80
2019-05-02T12:12:49.658Z,38.60
2019-05-02T12:15:23.287Z,39.50
2019-05-02T12:17:55.433Z,39.80
2019-05-02T12:20:28.573Z,40.30
2019-05-02T12:23:02.075Z,40.80
2019-05-02T12:25:34.243Z,40.80
2019-05-02T12:28:06.602Z,41.00
2019-05-02T12:30:39.452Z,41.10
2019-05-02T12:33:12.265Z,41.20
2019-05-02T12:35:44.399Z,41.70
2019-05-02T12:38:16.581Z,41.70
2019-05-02T12:40:48.886Z,42.00
2019-05-02T12:43:22.883Z,41.90
2019-05-02T12:45:55.445Z,42.20
2019-05-02T12:48:27.792Z,42.20
2019-05-02T12:51:01.868Z,42.30
2019-05-02T12:53:33.265Z,42.30
2019-05-02T12:56:05.760Z,42.30
2019-05-02T12:58:37.916Z,42.70
2019-05-02T13:01:12.284Z,43.20
2019-05-02T13:03:46.140Z,43.40
2019-05-02T13:06:18.551Z,43.00
2019-05-02T13:09:12.800Z,42.70
2019-05-02T13:11:52.540Z,42.70
2019-05-02T13:14:26.148Z,42.70
2019-05-02T13:17:03.800Z,42.90
2019-05-02T13:19:40.195Z,42.80
2019-05-02T13:22:08.717Z,42.90
2019-05-02T13:24:46.956Z,42.40
2019-05-02T13:27:18.389Z,41.70
2019-05-02T13:29:52.532Z,42.50
2019-05-02T13:32:26.014Z,42.50
2019-05-02T13:35:02.085Z,42.80
2019-05-02T13:37:33.889Z,43.30
2019-05-02T13:40:08.993Z,42.90
2019-05-02T13:42:41.964Z,43.00
2019-05-02T13:45:15.618Z,42.00
2019-05-02T13:47:49.586Z,42.90
2019-05-02T13:50:22.425Z,42.90
2019-05-02T13:52:57.881Z,43.10
2019-05-02T13:55:31.652Z,42.70
2019-05-02T13:58:03.307Z,42.60
2019-05-02T14:00:37.455Z,42.40
2019-05-02T14:03:11.826Z,42.20
2019-05-02T14:05:49.293Z,43.00
2019-05-02T14:08:22.356Z,42.70
2019-05-02T14:10:56.065Z,42.40
2019-05-02T14:13:28.329Z,43.10
2019-05-02T14:16:02.173Z,42.90
2019-05-02T14:18:35.472Z,43.20
2019-05-02T14:21:07.596Z,43.10
2019-05-02T14:23:39.647Z,43.60
2019-05-02T14:26:11.797Z,43.80
2019-05-02T14:28:43.793Z,44.30
2019-05-02T14:31:17.112Z,43.70
2019-05-02T14:33:52.378Z,43.90
2019-05-02T14:36:24.439Z,45.20
2019-05-02T14:38:56.810Z,44.50
2019-05-02T14:41:38.928Z,44.90
2019-05-02T14:44:03.829Z,45.10
2019-05-02T14:46:39.457Z,45.20
2019-05-02T14:49:09.468Z,45.30
2019-05-02T14:51:41.890Z,45.10
2019-05-02T14:54:14.103Z,45.60
2019-05-02T14:56:48.092Z,45.60
2019-05-02T14:59:20.698Z,45.60
2019-05-02T15:01:57.941Z,45.60
2019-05-02T15:04:31.977Z,46.10
2019-05-02T15:07:03.747Z,46.00
2019-05-02T15:09:36.463Z,46.80
2019-05-02T15:12:17.468Z,46.20
2019-05-02T15:14:43.227Z,46.50
2019-05-02T15:17:15.832Z,46.70
2019-05-02T15:19:48.799Z,46.50
2019-05-02T15:22:22.805Z,46.60
2019-05-02T15:24:56.520Z,46.60
2019-05-02T15:27:40.211Z,46.70
2019-05-02T15:30:06.780Z,46.90
2019-05-02T15:32:44.782Z,47.00
2019-05-02T15:35:17.730Z,47.20
2019-05-02T15:37:48.331Z,47.40
2019-05-02T15:42:56.653Z,47.10
2019-05-02T15:45:28.620Z,47.20
2019-05-02T15:48:02.537Z,47.20
2019-05-02T15:50:34.596Z,48.20
2019-05-02T15:53:10.164Z,47.30
2019-05-02T15:55:43.865Z,46.90
2019-05-02T15:58:26.032Z,47.10
2019-05-02T16:00:56.440Z,47.00
2019-05-02T16:03:29.067Z,47.30
2019-05-02T16:06:02.284Z,47.50
2019-05-02T16:08:35.760Z,47.70
2019-05-02T16:11:08.782Z,47.60
2019-05-02T16:13:42.462Z,47.40
2019-05-02T16:16:14.933Z,47.70
2019-05-02T16:18:47.163Z,47.90
2019-05-02T16:21:28.449Z,48.10
2019-05-02T16:23:56.451Z,47.80
2019-05-02T16:26:28.426Z,48.00
2019-05-02T16:29:00.563Z,48.40
2019-05-02T16:31:34.612Z,48.70
2019-05-02T16:34:06.793Z,48.20
2019-05-02T16:36:38.935Z,48.20
2019-05-02T16:39:13.654Z,48.10
2019-05-02T16:41:49.271Z,48.40
2019-05-02T16:44:19.196Z,48.00
2019-05-02T16:46:52.095Z,48.10
2019-05-02T16:49:25.222Z,48.50
2019-05-02T16:52:16.388Z,48.70
2019-05-02T16:54:49.038Z,48.60
2019-05-02T16:57:22.207Z,48.90
2019-05-02T17:00:01.682Z,48.70
2019-05-02T17:02:28.899Z,48.30
2019-05-02T17:05:08.288Z,48.30
2019-05-02T17:07:39.519Z,48.50
2019-05-02T17:10:16.143Z,48.60
2019-05-02T17:12:47.260Z,48.50
2019-05-02T17:15:22.016Z,49.30
2019-05-02T17:17:54.910Z,49.20
2019-05-02T17:20:27.819Z,49.80
2019-05-02T17:23:05.434Z,49.50
2019-05-02T17:25:35.726Z,49.30
2019-05-02T17:28:11.192Z,49.90
2019-05-02T17:30:43.385Z,49.40
2019-05-02T17:33:16.402Z,50.20
2019-05-02T17:35:51.210Z,49.50
2019-05-02T17:38:27.716Z,49.60
2019-05-02T17:40:59.401Z,49.90
2019-05-02T17:43:32.831Z,49.90
2019-05-02T17:46:07.581Z,50.10
2019-05-02T17:48:39.291Z,49.80
2019-05-02T17:51:12.918Z,49.80
2019-05-02T17:53:49.807Z,49.60
2019-05-02T17:56:22.338Z,49.20
2019-05-02T17:58:58.130Z,49.30
2019-05-02T18:01:33.334Z,49.30
2019-05-02T18:04:06.741Z,49.40
2019-05-02T18:06:36.084Z,49.40
2019-05-02T18:09:12.234Z,50.50
2019-05-02T18:11:44.759Z,49.70
2019-05-02T18:14:21.225Z,50.60
2019-05-02T18:16:54.287Z,49.70
2019-05-02T18:19:24.814Z,50.00
2019-05-02T18:21:58.207Z,50.00
2019-05-02T18:24:32.765Z,50.00
2019-05-02T18:27:06.034Z,50.00
2019-05-02T18:29:42.428Z,49.90
2019-05-02T18:32:12.811Z,49.80
2019-05-02T18:34:45.350Z,50.00
2019-05-02T18:37:17.511Z,50.00
2019-05-02T18:39:53.911Z,50.20
2019-05-02T18:42:25.491Z,50.30
2019-05-02T18:44:57.351Z,50.70
2019-05-02T18:47:29.415Z,50.40
2019-05-02T18:50:06.087Z,50.30
2019-05-02T18:52:42.921Z,50.50
2019-05-02T18:55:10.514Z,50.60
2019-05-02T18:57:42.851Z,50.50
2019-05-02T19:00:15.319Z,51.00
2019-05-02T19:02:48.329Z,51.00
2019-05-02T19:05:22.965Z,50.90
2019-05-02T19:07:56.480Z,50.60
2019-05-02T19:10:28.702Z,50.60
2019-05-02T19:13:04.469Z,50.60
2019-05-02T19:15:39.508Z,51.00
2019-05-02T19:18:10.673Z,50.60
2019-05-02T19:20:55.417Z,50.70
2019-05-02T19:23:22.484Z,51.40
2019-05-02T19:25:54.901Z,51.30
2019-05-02T19:28:29.201Z,50.90
2019-05-02T19:31:06.423Z,51.10
2019-05-02T19:33:37.528Z,51.30
2019-05-02T19:36:09.929Z,51.70
2019-05-02T19:38:42.839Z,51.10
2019-05-02T19:41:15.457Z,51.20
2019-05-02T19:43:49.812Z,51.30
2019-05-02T19:46:24.577Z,51.00
2019-05-02T19:48:55.844Z,51.00
2019-05-02T19:51:28.280Z,51.00
2019-05-02T19:54:03.628Z,51.10
2019-05-02T19:56:45.463Z,51.20
2019-05-02T19:59:11.877Z,51.50
2019-05-02T20:01:43.480Z,51.70
2019-05-02T20:04:16.126Z,51.80
2019-05-02T20:06:48.272Z,51.90
2019-05-02T20:09:20.287Z,52.10
2019-05-02T20:11:52.980Z,52.10
2019-05-02T20:14:24.981Z,52.70
2019-05-02T20:17:02.074Z,52.50
2019-05-02T20:19:34.978Z,52.50
2019-05-02T20:22:08.996Z,52.40
2019-05-02T20:24:49.204Z,52.50
2019-05-02T20:27:22.310Z,52.40
2019-05-02T20:29:54.137Z,51.70
2019-05-02T20:32:26.613Z,52.20
2019-05-02T20:34:58.493Z,52.20
2019-05-02T20:37:32.375Z,52.20
2019-05-02T20:40:04.296Z,52.50
2019-05-02T20:42:36.346Z,52.50
2019-05-02T20:45:11.626Z,52.50
2019-05-02T20:47:44.326Z,52.40
2019-05-02T20:50:16.929Z,52.40
2019-05-02T20:52:49.162Z,53.70
2019-05-02T20:55:21.374Z,52.70
2019-05-02T20:57:53.926Z,53.10
2019-05-02T21:00:32.060Z,52.60
2019-05-02T21:03:03.773Z,53.10
2019-05-02T21:05:37.538Z,52.60
2019-05-02T21:08:11.229Z,53.40
2019-05-02T21:10:45.314Z,52.60
2019-05-02T21:13:18.606Z,52.70
2019-05-02T21:15:52.418Z,52.60
2019-05-02T21:18:25.165Z,52.90
2019-05-02T21:20:58.199Z,52.70
2019-05-02T21:23:43.422Z,53.00
2019-05-02T21:26:04.477Z,53.70
2019-05-02T21:28:37.293Z,53.10
2019-05-02T21:31:09.457Z,53.70
2019-05-02T21:33:44.338Z,53.20
2019-05-02T21:36:16.340Z,53.70
2019-05-02T21:38:48.312Z,54.00
2019-05-02T21:41:22.228Z,54.20
2019-05-02T21:43:54.389Z,54.10
2019-05-02T21:46:26.878Z,54.20
2019-05-02T21:48:58.817Z,54.40
2019-05-02T21:51:34.346Z,54.90
2019-05-02T21:54:06.160Z,55.10
2019-05-02T21:56:38.101Z,55.10
2019-05-02T21:59:12.388Z,55.20
2019-05-02T22:01:51.972Z,55.40
2019-05-02T22:04:24.755Z,55.30
2019-05-02T22:07:15.972Z,55.70
2019-05-02T22:09:48.321Z,55.50
2019-05-02T22:12:22.423Z,55.50
2019-05-02T22:14:54.382Z,56.00
2019-05-02T22:17:26.876Z,55.60
2019-05-02T22:19:59.358Z,55.50
2019-05-02T22:22:31.755Z,55.60
2019-05-02T22:25:04.976Z,55.90
2019-05-02T22:27:37.656Z,55.70
2019-05-02T22:30:12.466Z,55.90
2019-05-02T22:32:44.424Z,56.00
2019-05-02T22:35:16.596Z,56.00
2019-05-02T22:37:50.199Z,56.50
2019-05-02T22:40:22.238Z,56.00
2019-05-02T22:42:54.260Z,56.10
2019-05-02T22:45:26.886Z,56.10
2019-05-02T22:47:58.879Z,56.00
2019-05-02T22:50:32.538Z,56.00
2019-05-02T22:53:05.890Z,56.00
2019-05-02T22:55:37.979Z,56.20
2019-05-02T22:58:10.393Z,56.10
2019-05-02T23:00:42.614Z,56.10
2019-05-02T23:03:15.034Z,56.50
2019-05-02T23:05:47.541Z,56.10
2019-05-02T23:08:21.925Z,56.20
2019-05-02T23:10:54.220Z,56.30
2019-05-02T23:13:26.134Z,56.50
2019-05-02T23:15:58.243Z,56.50
2019-05-02T23:18:31.938Z,56.50
2019-05-02T23:21:04.134Z,56.70
2019-05-02T23:23:36.473Z,56.50
2019-05-02T23:26:10.011Z,56.50
2019-05-02T23:28:43.693Z,56.70
2019-05-02T23:31:16.493Z,56.40
2019-05-02T23:33:51.663Z,56.30
2019-05-02T23:36:25.311Z,56.20
2019-05-02T23:38:58.412Z,56.10
2019-05-02T23:41:32.722Z,56.10
2019-05-02T23:44:04.910Z,56.00
2019-05-02T23:46:37.161Z,55.90
2019-05-02T23:49:09.332Z,56.00
2019-05-02T23:51:42.992Z,56.20
2019-05-02T23:54:15.308Z,56.00
2019-05-02T23:56:48.414Z,56.30
2019-05-02T23:59:22.291Z,56.30
